createdAt,value
2022-11-18T00:00:20.648Z,29.97
2022-11-18T00:02:49.062Z,32.00
2022-11-18T00:05:18.879Z,31.83
2022-11-18T00:07:47.299Z,30.53
2022-11-18T00:10:15.751Z,30.47
2022-11-18T00:13:01.638Z,32.67
2022-11-18T00:15:31.844Z,36.47
2022-11-18T00:18:00.461Z,39.20
2022-11-18T00:20:30.276Z,38.23
2022-11-18T00:22:58.619Z,36.87
2022-11-18T00:25:27.064Z,41.17
2022-11-18T00:27:55.933Z,43.67
2022-11-18T00:30:25.022Z,45.47
2022-11-18T00:32:53.407Z,49.77
2022-11-18T00:35:21.809Z,48.33
2022-11-18T00:37:51.613Z,49.87
2022-11-18T00:40:20.047Z,44.03
2022-11-18T00:42:53.838Z,43.63
2022-11-18T00:45:22.811Z,50.03
2022-11-18T00:47:51.270Z,42.33
2022-11-18T00:50:19.699Z,39.93
2022-11-18T00:52:48.261Z,33.37
2022-11-18T00:55:18.204Z,38.83
2022-11-18T00:57:46.635Z,37.50
2022-11-18T01:00:15.291Z,32.33
2022-11-18T01:02:43.649Z,39.07
2022-11-18T01:05:12.078Z,37.87
2022-11-18T01:07:40.571Z,38.50
2022-11-18T01:10:09.181Z,40.53
2022-11-18T01:12:56.529Z,36.20
2022-11-18T01:15:24.959Z,42.60
2022-11-18T01:17:53.351Z,39.80
2022-11-18T01:20:21.776Z,37.43
2022-11-18T01:22:50.164Z,45.87
2022-11-18T01:25:18.697Z,36.63
2022-11-18T01:27:48.498Z,39.97
2022-11-18T01:30:17.677Z,37.47
2022-11-18T01:32:46.034Z,39.80
2022-11-18T01:35:14.779Z,44.93
2022-11-18T01:37:43.147Z,47.93
2022-11-18T01:40:12.630Z,41.40
2022-11-18T01:42:41.046Z,45.27
2022-11-18T01:45:19.899Z,46.10
2022-11-18T01:47:51.614Z,44.10
2022-11-18T01:50:20.852Z,45.80
2022-11-18T01:52:51.807Z,42.57
2022-11-18T01:55:23.919Z,46.23
2022-11-18T01:57:53.508Z,38.03
2022-11-18T02:00:23.630Z,44.43
2022-11-18T02:02:52.460Z,39.90
2022-11-18T02:05:21.101Z,38.17
2022-11-18T02:07:49.847Z,37.67
2022-11-18T02:10:20.613Z,39.93
2022-11-18T02:12:49.282Z,36.60
2022-11-18T02:15:18.553Z,33.47
2022-11-18T02:17:52.155Z,33.07
2022-11-18T02:20:24.878Z,29.00
2022-11-18T02:23:07.580Z,32.17
2022-11-18T02:25:43.302Z,31.13
2022-11-18T02:28:24.719Z,35.27
2022-11-18T02:30:58.397Z,29.00
2022-11-18T02:33:30.589Z,30.83
2022-11-18T02:36:01.566Z,31.00
2022-11-18T02:38:31.572Z,29.10
2022-11-18T02:41:02.137Z,28.73
2022-11-18T02:43:32.466Z,32.83
2022-11-18T02:46:03.908Z,30.43
2022-11-18T02:48:34.570Z,30.57
2022-11-18T02:51:03.887Z,33.70
2022-11-18T02:53:34.343Z,30.50
2022-11-18T02:56:03.750Z,29.63
2022-11-18T02:58:32.199Z,30.47
2022-11-18T03:01:03.019Z,33.47
2022-11-18T03:03:32.804Z,36.50
2022-11-18T03:06:11.074Z,34.40
2022-11-18T03:08:41.393Z,35.90
2022-11-18T03:11:12.947Z,35.27
2022-11-18T03:13:45.407Z,35.33
2022-11-18T03:16:16.833Z,31.17
2022-11-18T03:18:47.654Z,35.97
2022-11-18T03:21:19.494Z,34.20
2022-11-18T03:23:52.612Z,37.63
2022-11-18T03:26:24.534Z,44.53
2022-11-18T03:28:57.388Z,38.43
2022-11-18T03:31:30.314Z,35.77
2022-11-18T03:33:59.869Z,40.43
2022-11-18T03:36:30.408Z,35.77
2022-11-18T03:39:01.151Z,41.37
2022-11-18T03:41:31.511Z,37.07
2022-11-18T03:44:03.415Z,43.60
2022-11-18T03:46:36.344Z,99.67
2022-11-18T03:49:06.641Z,42.93
2022-11-18T03:51:37.606Z,44.43
2022-11-18T03:54:10.991Z,40.53
2022-11-18T03:56:43.203Z,39.40
2022-11-18T03:59:15.609Z,44.27
2022-11-18T04:01:47.997Z,43.73
2022-11-18T04:04:16.878Z,41.83
2022-11-18T04:06:47.621Z,43.83
2022-11-18T04:09:19.353Z,45.13
2022-11-18T04:12:05.599Z,45.27
2022-11-18T04:14:35.291Z,39.47
2022-11-18T04:17:10.064Z,50.93
2022-11-18T04:19:38.975Z,45.20
2022-11-18T04:22:07.695Z,44.93
2022-11-18T04:24:36.181Z,47.80
2022-11-18T04:27:04.824Z,54.23
2022-11-18T04:29:33.546Z,39.30
2022-11-18T04:32:02.213Z,50.40
2022-11-18T04:34:32.228Z,48.23
2022-11-18T04:37:00.726Z,49.70
2022-11-18T04:39:29.222Z,44.37
2022-11-18T04:41:57.826Z,47.37
2022-11-18T04:44:27.202Z,46.10
2022-11-18T04:46:56.404Z,45.07
2022-11-18T04:49:25.497Z,46.80
2022-11-18T04:51:55.532Z,44.57
2022-11-18T04:54:25.044Z,40.97
2022-11-18T04:56:53.881Z,43.67
2022-11-18T04:59:23.280Z,42.43
2022-11-18T05:01:52.181Z,43.27
2022-11-18T05:04:22.007Z,38.00
2022-11-18T05:06:50.584Z,39.83
2022-11-18T05:09:20.769Z,43.23
2022-11-18T05:12:07.424Z,42.67
2022-11-18T05:14:35.807Z,36.27
2022-11-18T05:17:05.244Z,40.37
2022-11-18T05:19:33.779Z,36.23
2022-11-18T05:22:02.333Z,41.43
2022-11-18T05:24:32.275Z,43.57
2022-11-18T05:27:00.778Z,43.27
2022-11-18T05:29:29.276Z,43.03
2022-11-18T05:31:57.651Z,38.43
2022-11-18T05:34:26.200Z,38.93
2022-11-18T05:36:54.554Z,38.17
2022-11-18T05:39:23.139Z,38.30
2022-11-18T05:42:10.431Z,36.67
2022-11-18T05:44:38.882Z,47.67
2022-11-18T05:47:07.503Z,44.60
2022-11-18T05:49:36.045Z,132.40
2022-11-18T05:52:04.950Z,45.10
2022-11-18T05:54:33.630Z,44.83
2022-11-18T05:57:03.512Z,41.50
2022-11-18T05:59:32.032Z,45.73
2022-11-18T06:02:02.104Z,43.63
2022-11-18T06:04:32.447Z,50.23
2022-11-18T06:07:03.067Z,40.70
2022-11-18T06:09:34.225Z,40.70
2022-11-18T06:12:06.225Z,40.07
2022-11-18T06:14:37.124Z,39.30
2022-11-18T06:17:07.900Z,44.00
2022-11-18T06:19:36.469Z,42.33
2022-11-18T06:22:05.552Z,41.03
2022-11-18T06:24:34.145Z,41.27
2022-11-18T06:27:04.183Z,42.50
2022-11-18T06:29:33.238Z,39.70
2022-11-18T06:32:01.739Z,46.07
2022-11-18T06:34:30.348Z,36.83
2022-11-18T06:36:58.809Z,39.57
2022-11-18T06:39:27.329Z,33.60
2022-11-18T06:41:55.841Z,35.00
2022-11-18T06:44:24.613Z,38.10
2022-11-18T06:46:59.523Z,39.43
2022-11-18T06:49:28.365Z,35.03
2022-11-18T06:51:56.971Z,35.40
2022-11-18T06:54:25.513Z,36.30
2022-11-18T06:56:53.911Z,39.30
2022-11-18T06:59:24.525Z,39.80
2022-11-18T07:01:54.450Z,35.57
2022-11-18T07:04:23.014Z,32.57
2022-11-18T07:06:51.493Z,35.03
2022-11-18T07:09:20.318Z,36.97
2022-11-18T07:11:48.891Z,36.33
2022-11-18T07:14:17.345Z,30.67
2022-11-18T07:16:45.868Z,37.87
2022-11-18T07:19:17.101Z,31.70
2022-11-18T07:21:45.688Z,31.23
2022-11-18T07:24:15.086Z,30.80
2022-11-18T07:26:43.999Z,36.10
2022-11-18T07:29:12.449Z,33.87
2022-11-18T07:31:40.987Z,38.43
2022-11-18T07:34:09.496Z,33.73
2022-11-18T07:36:39.365Z,34.33
2022-11-18T07:39:09.024Z,35.47
2022-11-18T07:41:37.665Z,39.33
2022-11-18T07:44:07.422Z,36.43
2022-11-18T07:46:37.030Z,39.23
2022-11-18T07:49:06.702Z,39.40
2022-11-18T07:51:36.198Z,42.50
2022-11-18T07:54:09.341Z,40.53
2022-11-18T07:56:37.948Z,46.40
2022-11-18T07:59:06.572Z,34.97
2022-11-18T08:01:35.141Z,35.50
2022-11-18T08:04:06.956Z,41.57
2022-11-18T08:06:35.861Z,40.33
2022-11-18T08:09:04.838Z,39.00
2022-11-18T08:11:34.810Z,44.90
2022-11-18T08:14:03.605Z,40.97
2022-11-18T08:16:32.277Z,43.83
2022-11-18T08:19:01.742Z,49.73
2022-11-18T08:21:30.355Z,42.63
2022-11-18T08:23:59.441Z,43.43
2022-11-18T08:26:28.347Z,48.13
2022-11-18T08:28:58.926Z,44.00
2022-11-18T08:31:28.571Z,48.00
2022-11-18T08:33:57.563Z,49.93
2022-11-18T08:36:27.739Z,48.53
2022-11-18T08:38:56.830Z,49.73
2022-11-18T08:41:29.432Z,50.40
2022-11-18T08:43:59.409Z,49.47
2022-11-18T08:46:27.851Z,48.27
2022-11-18T08:48:56.327Z,50.17
2022-11-18T08:51:25.123Z,50.73
2022-11-18T08:53:53.802Z,46.50
2022-11-18T08:56:22.916Z,52.60
2022-11-18T08:58:51.635Z,49.03
2022-11-18T09:01:21.710Z,46.63
2022-11-18T09:03:50.617Z,49.60
2022-11-18T09:06:19.811Z,44.83
2022-11-18T09:08:48.411Z,41.20
2022-11-18T09:11:17.563Z,44.97
2022-11-18T09:16:36.784Z,42.50
2022-11-18T09:19:24.856Z,43.23
2022-11-18T09:21:53.916Z,39.23
2022-11-18T09:24:22.403Z,47.70
2022-11-18T09:26:50.922Z,41.27
2022-11-18T09:29:19.978Z,40.67
2022-11-18T09:31:49.868Z,38.13
2022-11-18T09:34:18.515Z,43.37
2022-11-18T09:36:47.144Z,38.10
2022-11-18T09:39:16.362Z,40.43
2022-11-18T09:41:48.303Z,35.97
2022-11-18T09:44:25.323Z,41.57
2022-11-18T09:47:01.327Z,31.13
2022-11-18T09:49:31.397Z,38.30
2022-11-18T09:52:03.517Z,32.90
2022-11-18T09:54:33.283Z,35.63
2022-11-18T09:57:02.073Z,31.90
2022-11-18T09:59:33.123Z,31.77
2022-11-18T10:02:13.536Z,34.13
2022-11-18T10:04:42.040Z,32.60
2022-11-18T10:07:16.238Z,32.67
2022-11-18T10:09:45.110Z,29.70
2022-11-18T10:12:21.643Z,22.90
2022-11-18T10:14:57.344Z,26.07
2022-11-18T10:17:33.501Z,27.60
2022-11-18T10:20:08.860Z,29.10
2022-11-18T10:22:41.852Z,23.50
2022-11-18T10:25:14.467Z,25.90
2022-11-18T10:27:43.873Z,27.90
2022-11-18T10:30:14.655Z,24.83
2022-11-18T10:32:57.972Z,24.53
2022-11-18T10:35:27.897Z,25.47
2022-11-18T10:38:09.959Z,22.47
2022-11-18T10:40:40.040Z,19.07
2022-11-18T10:43:08.619Z,20.77
2022-11-18T10:45:37.215Z,20.77
2022-11-18T10:48:11.356Z,22.10
2022-11-18T10:50:40.853Z,21.13
2022-11-18T10:53:29.363Z,17.20
2022-11-18T10:56:00.032Z,20.30
2022-11-18T10:58:28.536Z,16.17
2022-11-18T11:01:06.283Z,21.83
2022-11-18T11:03:37.288Z,17.97
2022-11-18T11:06:16.743Z,19.27
2022-11-18T11:08:49.664Z,14.90
2022-11-18T11:11:26.196Z,13.90
2022-11-18T11:13:57.125Z,11.73
2022-11-18T11:16:26.945Z,7.53
2022-11-18T11:18:58.495Z,6.03
2022-11-18T11:21:28.653Z,9.93
2022-11-18T11:23:57.181Z,7.57
2022-11-18T11:29:24.670Z,7.77
2022-11-18T11:31:57.077Z,6.77
2022-11-18T11:34:30.105Z,9.27
2022-11-18T11:37:01.860Z,7.00
2022-11-18T11:39:38.581Z,8.33
2022-11-18T11:42:11.394Z,6.10
2022-11-18T11:44:45.592Z,6.43
2022-11-18T11:47:35.727Z,7.33
2022-11-18T11:50:10.793Z,6.40
2022-11-18T11:52:43.579Z,6.17
2022-11-18T11:55:18.364Z,6.47
2022-11-18T11:57:53.678Z,5.73
2022-11-18T12:00:22.604Z,5.87
2022-11-18T12:03:04.350Z,4.50
2022-11-18T12:05:36.152Z,3.43
2022-11-18T12:08:05.765Z,3.97
2022-11-18T12:10:46.521Z,5.97
2022-11-18T12:13:19.459Z,4.37
2022-11-18T12:15:57.072Z,3.03
2022-11-18T12:18:28.561Z,9.50
2022-11-18T12:20:58.513Z,3.50
2022-11-18T12:23:27.632Z,5.70
2022-11-18T12:25:58.422Z,7.63
2022-11-18T12:28:27.903Z,4.27
2022-11-18T12:31:11.220Z,3.77
2022-11-18T12:33:44.107Z,5.33
2022-11-18T12:36:26.465Z,3.37
2022-11-18T12:38:55.237Z,3.93
2022-11-18T12:42:05.071Z,7.47
2022-11-18T12:44:33.497Z,3.40
2022-11-18T12:47:02.761Z,3.03
2022-11-18T12:49:49.684Z,5.97
2022-11-18T12:52:32.999Z,2.80
2022-11-18T12:55:04.866Z,5.30
2022-11-18T12:57:35.035Z,2.83
2022-11-18T13:00:17.717Z,3.87
2022-11-18T13:02:53.023Z,3.53
2022-11-18T13:05:22.993Z,3.87
2022-11-18T13:08:10.575Z,3.73
2022-11-18T13:10:46.037Z,3.17
2022-11-18T13:13:21.284Z,2.23
2022-11-18T13:16:09.724Z,3.50
2022-11-18T13:18:48.985Z,5.83
2022-11-18T13:21:40.040Z,5.47
2022-11-18T13:24:08.832Z,8.10
2022-11-18T13:26:41.263Z,5.83
2022-11-18T13:29:26.619Z,5.10
2022-11-18T13:32:00.987Z,4.57
2022-11-18T13:34:31.426Z,13.10
2022-11-18T13:37:00.959Z,79.87
2022-11-18T13:39:30.878Z,8.57
2022-11-18T13:42:05.679Z,1.57
2022-11-18T13:44:34.909Z,1.77
2022-11-18T13:47:06.673Z,3.00
2022-11-18T13:49:40.820Z,5.07
2022-11-18T13:52:11.647Z,5.30
2022-11-18T13:54:40.218Z,7.30
2022-11-18T13:57:15.708Z,2.50
2022-11-18T13:59:44.241Z,4.27
2022-11-18T14:02:14.697Z,4.17
2022-11-18T14:04:49.762Z,11.47
2022-11-18T14:07:24.930Z,10.27
2022-11-18T14:09:57.172Z,9.17
2022-11-18T14:12:29.012Z,9.57
2022-11-18T14:15:12.893Z,10.47
2022-11-18T14:17:51.051Z,5.53
2022-11-18T14:20:19.817Z,10.93
2022-11-18T14:22:48.955Z,4.70
2022-11-18T14:25:19.176Z,2.80
2022-11-18T14:27:53.091Z,2.67
2022-11-18T14:30:35.263Z,9.90
2022-11-18T14:33:21.311Z,1.50
2022-11-18T14:35:51.600Z,1.90
2022-11-18T14:38:38.318Z,1.10
2022-11-18T14:41:10.540Z,1.57
2022-11-18T14:43:40.315Z,1.23
2022-11-18T14:46:12.989Z,2.70
2022-11-18T14:48:41.586Z,7.33
2022-11-18T14:51:13.443Z,2.87
2022-11-18T14:53:41.922Z,5.30
2022-11-18T14:56:14.234Z,6.73
2022-11-18T14:58:43.953Z,1.30
2022-11-18T15:01:13.293Z,1.10
2022-11-18T15:03:41.894Z,0.83
2022-11-18T15:06:14.184Z,2.20
2022-11-18T15:08:42.973Z,3.77
2022-11-18T15:11:11.519Z,2.57
2022-11-18T15:13:40.089Z,2.20
2022-11-18T15:16:15.912Z,2.00
2022-11-18T15:18:44.681Z,4.70
2022-11-18T15:21:13.330Z,1.37
2022-11-18T15:23:41.933Z,3.70
2022-11-18T15:26:18.178Z,5.40
2022-11-18T15:28:46.694Z,1.80
2022-11-18T15:31:16.773Z,1.33
2022-11-18T15:33:45.277Z,4.47
2022-11-18T15:36:14.836Z,3.33
2022-11-18T15:38:43.633Z,2.37
2022-11-18T15:41:16.836Z,2.17
2022-11-18T15:43:45.264Z,2.47
2022-11-18T15:46:13.754Z,2.80
2022-11-18T15:48:43.742Z,2.37
2022-11-18T15:51:12.633Z,2.10
2022-11-18T15:53:41.213Z,3.90
2022-11-18T15:56:16.637Z,8.57
2022-11-18T15:58:45.158Z,4.33
2022-11-18T16:01:13.748Z,5.37
2022-11-18T16:03:43.649Z,2.53
2022-11-18T16:06:12.226Z,3.33
2022-11-18T16:08:40.647Z,1.53
2022-11-18T16:11:26.691Z,2.03
2022-11-18T16:13:55.213Z,3.13
2022-11-18T16:16:25.407Z,2.67
2022-11-18T16:18:56.977Z,2.63
2022-11-18T16:21:25.956Z,2.97
2022-11-18T16:23:56.332Z,3.17
2022-11-18T16:26:24.913Z,3.73
2022-11-18T16:28:53.390Z,4.90
2022-11-18T16:31:40.029Z,4.47
2022-11-18T16:34:10.524Z,3.77
2022-11-18T16:36:39.487Z,3.00
2022-11-18T16:39:08.978Z,3.67
2022-11-18T16:41:37.661Z,1.97
2022-11-18T16:44:06.969Z,2.90
2022-11-18T16:46:35.891Z,2.90
2022-11-18T16:49:04.893Z,51.67
2022-11-18T16:51:35.514Z,3.57
2022-11-18T16:54:04.657Z,1.50
2022-11-18T16:56:33.788Z,2.87
2022-11-18T16:59:03.128Z,2.73
2022-11-18T17:01:32.755Z,1.87
2022-11-18T17:04:01.597Z,1.67
2022-11-18T17:06:31.557Z,2.00
2022-11-18T17:09:01.495Z,2.60
2022-11-18T17:11:30.368Z,2.37
2022-11-18T17:13:58.879Z,3.13
2022-11-18T17:16:28.181Z,3.37
2022-11-18T17:18:57.540Z,5.27
2022-11-18T17:21:26.322Z,5.30
2022-11-18T17:23:54.961Z,4.50
2022-11-18T17:26:25.783Z,3.90
2022-11-18T17:28:54.343Z,4.73
2022-11-18T17:31:23.531Z,5.70
2022-11-18T17:33:53.134Z,6.97
2022-11-18T17:36:22.277Z,5.90
2022-11-18T17:38:51.523Z,4.23
2022-11-18T17:41:38.678Z,3.07
2022-11-18T17:44:09.784Z,3.60
2022-11-18T17:46:38.812Z,4.53
2022-11-18T17:49:08.014Z,2.50
2022-11-18T17:51:36.379Z,4.40
2022-11-18T17:54:04.818Z,6.40
2022-11-18T17:56:33.387Z,6.70
2022-11-18T17:59:01.880Z,5.20
2022-11-18T18:01:31.800Z,3.83
2022-11-18T18:04:00.318Z,1.93
2022-11-18T18:06:28.759Z,4.30
2022-11-18T18:08:57.533Z,1.67
2022-11-18T18:11:26.537Z,1.73
2022-11-18T18:14:12.695Z,2.00
2022-11-18T18:16:43.432Z,1.40
2022-11-18T18:19:12.748Z,3.60
2022-11-18T18:21:41.172Z,2.40
2022-11-18T18:24:10.089Z,1.60
2022-11-18T18:26:38.851Z,3.23
2022-11-18T18:29:07.374Z,7.17
2022-11-18T18:31:36.344Z,4.50
2022-11-18T18:34:06.808Z,11.87
2022-11-18T18:36:35.541Z,18.40
2022-11-18T18:39:03.966Z,10.30
2022-11-18T18:41:33.037Z,7.23
2022-11-18T18:44:01.433Z,23.80
2022-11-18T18:46:30.970Z,13.77
2022-11-18T18:49:00.995Z,14.10
2022-11-18T18:51:31.405Z,11.27
2022-11-18T18:54:00.229Z,13.13
2022-11-18T18:56:28.851Z,14.33
2022-11-18T18:58:57.805Z,12.93
2022-11-18T19:01:26.259Z,18.53
2022-11-18T19:03:58.790Z,24.80
2022-11-18T19:06:50.481Z,30.70
2022-11-18T19:09:18.211Z,4.40
2022-11-18T19:12:04.888Z,4.20
2022-11-18T19:14:34.784Z,5.40
2022-11-18T19:17:09.589Z,2.43
2022-11-18T19:19:57.435Z,34.00
2022-11-18T19:22:26.126Z,9.60
2022-11-18T19:24:56.208Z,2.47
2022-11-18T19:27:25.143Z,2.20
2022-11-18T19:29:53.717Z,2.20
2022-11-18T19:32:22.230Z,3.37
2022-11-18T19:34:50.551Z,2.70
2022-11-18T19:37:19.036Z,2.53
2022-11-18T19:39:47.493Z,3.87
2022-11-18T19:42:17.430Z,9.60
2022-11-18T19:44:45.856Z,12.90
2022-11-18T19:47:14.282Z,9.03
2022-11-18T19:49:42.688Z,8.10
2022-11-18T19:52:11.205Z,5.80
2022-11-18T19:54:41.169Z,5.83
2022-11-18T19:57:09.648Z,6.73
2022-11-18T19:59:39.582Z,6.23
2022-11-18T20:02:08.556Z,6.80
2022-11-18T20:04:37.020Z,4.73
2022-11-18T20:07:05.629Z,5.50
2022-11-18T20:09:34.204Z,6.47
2022-11-18T20:12:02.937Z,6.30
2022-11-18T20:14:31.333Z,4.33
2022-11-18T20:17:01.102Z,3.03
2022-11-18T20:19:29.493Z,2.20
2022-11-18T20:21:57.984Z,1.20
2022-11-18T20:24:26.487Z,4.17
2022-11-18T20:26:54.946Z,2.20
2022-11-18T20:29:23.366Z,6.10
2022-11-18T20:31:51.907Z,11.50
2022-11-18T20:34:22.127Z,7.33
2022-11-18T20:36:53.219Z,5.17
2022-11-18T20:39:21.980Z,4.40
2022-11-18T20:42:07.599Z,4.27
2022-11-18T20:44:36.525Z,5.43
2022-11-18T20:47:04.912Z,1.70
2022-11-18T20:49:34.820Z,2.77
2022-11-18T20:52:03.254Z,3.30
2022-11-18T20:54:31.659Z,3.10
2022-11-18T20:56:59.997Z,2.23
2022-11-18T20:59:28.415Z,5.10
2022-11-18T21:01:56.736Z,5.43
2022-11-18T21:04:25.314Z,216.13
2022-11-18T21:06:59.026Z,13.23
2022-11-18T21:09:31.492Z,8.50
2022-11-18T21:12:00.006Z,7.60
2022-11-18T21:14:27.446Z,9.30
2022-11-18T21:16:57.975Z,5.60
2022-11-18T21:19:27.640Z,5.90
2022-11-18T21:21:57.700Z,3.83
2022-11-18T21:24:28.758Z,4.17
2022-11-18T21:26:57.920Z,4.60
2022-11-18T21:29:27.211Z,5.13
2022-11-18T21:31:55.816Z,5.30
2022-11-18T21:34:24.366Z,4.63
2022-11-18T21:36:55.009Z,4.70
2022-11-18T21:39:25.488Z,4.17
2022-11-18T21:41:56.652Z,5.63
2022-11-18T21:44:25.430Z,7.87
2022-11-18T21:46:53.882Z,7.27
2022-11-18T21:49:22.884Z,7.77
2022-11-18T21:51:51.443Z,6.77
2022-11-18T21:54:19.860Z,8.57
2022-11-18T21:56:49.741Z,5.40
2022-11-18T21:59:18.504Z,3.77
2022-11-18T22:01:47.242Z,3.33
2022-11-18T22:04:36.774Z,1.50
2022-11-18T22:07:05.366Z,1.83
2022-11-18T22:09:36.845Z,2.33
2022-11-18T22:12:07.996Z,3.33
2022-11-18T22:14:36.573Z,2.20
2022-11-18T22:17:05.155Z,5.20
2022-11-18T22:19:33.615Z,4.97
2022-11-18T22:22:02.147Z,4.20
2022-11-18T22:24:30.625Z,4.53
2022-11-18T22:26:59.274Z,2.23
2022-11-18T22:29:29.102Z,4.03
2022-11-18T22:31:57.478Z,5.93
2022-11-18T22:34:26.487Z,7.00
2022-11-18T22:36:54.928Z,8.87
2022-11-18T22:39:23.381Z,8.57
2022-11-18T22:42:09.515Z,8.93
2022-11-18T22:44:39.316Z,8.60
2022-11-18T22:47:07.690Z,8.00
2022-11-18T22:49:36.059Z,7.33
2022-11-18T22:52:04.535Z,8.50
2022-11-18T22:54:40.568Z,11.30
2022-11-18T22:57:09.431Z,10.43
2022-11-18T22:59:39.429Z,10.20
2022-11-18T23:02:07.962Z,9.67
2022-11-18T23:04:36.405Z,5.73
2022-11-18T23:07:05.142Z,13.70
2022-11-18T23:09:33.700Z,16.87
2022-11-18T23:12:19.634Z,14.70
2022-11-18T23:14:49.504Z,16.30
2022-11-18T23:17:17.972Z,9.23
2022-11-18T23:19:47.250Z,12.47
2022-11-18T23:22:15.891Z,9.57
2022-11-18T23:24:44.379Z,10.70
2022-11-18T23:27:12.813Z,9.13
2022-11-18T23:29:41.213Z,6.57
2022-11-18T23:32:10.992Z,4.97
2022-11-18T23:34:39.334Z,6.97
2022-11-18T23:37:07.799Z,5.10
2022-11-18T23:39:37.294Z,6.33
2022-11-18T23:42:06.075Z,9.00
2022-11-18T23:44:46.491Z,7.83
2022-11-18T23:47:16.427Z,9.33
2022-11-18T23:49:44.902Z,5.10
2022-11-18T23:52:14.961Z,4.50
2022-11-18T23:54:43.504Z,1.80
2022-11-18T23:57:11.985Z,1.90
2022-11-18T23:59:40.459Z,1.73
